sensor_id;sensor_type;location;lat;lon;timestamp;pressure;altitude;pressure_sealevel;temperature;humidity
39265;BME280;42646;51.910;7.724;2022-07-30T00:01:52;101066.78;;;15.98;96.90
39265;BME280;42646;51.910;7.724;2022-07-30T00:04:20;101061.06;;;15.93;97.04
39265;BME280;42646;51.910;7.724;2022-07-30T00:06:47;101067.78;;;15.89;96.58
39265;BME280;42646;51.910;7.724;2022-07-30T00:09:15;101066.59;;;15.84;96.06
39265;BME280;42646;51.910;7.724;2022-07-30T00:11:43;101063.38;;;15.80;96.61
39265;BME280;42646;51.910;7.724;2022-07-30T00:14:10;101064.69;;;15.76;97.64
39265;BME280;42646;51.910;7.724;2022-07-30T00:16:39;101064.19;;;15.72;98.08
39265;BME280;42646;51.910;7.724;2022-07-30T00:19:08;101065.50;;;15.68;97.68
39265;BME280;42646;51.910;7.724;2022-07-30T00:21:36;101063.16;;;15.65;97.50
39265;BME280;42646;51.910;7.724;2022-07-30T00:24:05;101059.91;;;15.62;98.05
39265;BME280;42646;51.910;7.724;2022-07-30T00:26:33;101063.75;;;15.59;98.27
39265;BME280;42646;51.910;7.724;2022-07-30T00:29:01;101069.44;;;15.56;98.73
39265;BME280;42646;51.910;7.724;2022-07-30T00:31:30;101070.75;;;15.52;99.12
39265;BME280;42646;51.910;7.724;2022-07-30T00:33:59;101066.56;;;15.49;99.58
39265;BME280;42646;51.910;7.724;2022-07-30T00:36:27;101065.03;;;15.47;99.99
39265;BME280;42646;51.910;7.724;2022-07-30T00:38:54;101065.53;;;15.42;99.86
39265;BME280;42646;51.910;7.724;2022-07-30T00:41:23;101056.13;;;15.38;100.00
39265;BME280;42646;51.910;7.724;2022-07-30T00:43:51;101053.59;;;15.37;100.00
39265;BME280;42646;51.910;7.724;2022-07-30T00:46:19;101055.59;;;15.35;100.00
39265;BME280;42646;51.910;7.724;2022-07-30T00:48:47;101053.25;;;15.32;100.00
39265;BME280;42646;51.910;7.724;2022-07-30T00:51:17;101053.72;;;15.27;100.00
39265;BME280;42646;51.910;7.724;2022-07-30T00:53:44;101052.19;;;15.25;100.00
39265;BME280;42646;51.910;7.724;2022-07-30T00:56:13;101050.81;;;15.20;100.00
39265;BME280;42646;51.910;7.724;2022-07-30T00:58:41;101047.63;;;15.17;100.00
39265;BME280;42646;51.910;7.724;2022-07-30T01:01:09;101051.63;;;15.13;100.00
39265;BME280;42646;51.910;7.724;2022-07-30T01:03:37;101048.41;;;15.09;100.00
39265;BME280;42646;51.910;7.724;2022-07-30T01:06:05;101047.03;;;15.05;99.94
39265;BME280;42646;51.910;7.724;2022-07-30T01:08:41;101051.06;;;15.01;99.40
39265;BME280;42646;51.910;7.724;2022-07-30T01:11:10;101054.88;;;14.99;99.06
39265;BME280;42646;51.910;7.724;2022-07-30T01:13:41;101052.34;;;14.97;99.21
39265;BME280;42646;51.910;7.724;2022-07-30T01:16:09;101054.50;;;14.93;99.31
39265;BME280;42646;51.910;7.724;2022-07-30T01:18:37;101044.09;;;14.90;99.37
39265;BME280;42646;51.910;7.724;2022-07-30T01:21:29;101038.22;;;14.87;99.36
39265;BME280;42646;51.910;7.724;2022-07-30T01:24:11;101041.91;;;14.86;99.71
39265;BME280;42646;51.910;7.724;2022-07-30T01:26:48;101036.00;;;14.82;100.00
39265;BME280;42646;51.910;7.724;2022-07-30T01:29:17;101039.84;;;14.80;100.00
39265;BME280;42646;51.910;7.724;2022-07-30T01:31:47;101042.84;;;14.77;100.00
39265;BME280;42646;51.910;7.724;2022-07-30T01:34:16;101039.63;;;14.73;100.00
39265;BME280;42646;51.910;7.724;2022-07-30T01:36:44;101038.25;;;14.69;100.00
39265;BME280;42646;51.910;7.724;2022-07-30T01:39:13;101040.25;;;14.67;100.00
39265;BME280;42646;51.910;7.724;2022-07-30T01:41:46;101037.75;;;14.65;100.00
39265;BME280;42646;51.910;7.724;2022-07-30T01:44:16;101039.03;;;14.61;100.00
39265;BME280;42646;51.910;7.724;2022-07-30T01:46:49;101035.81;;;14.58;100.00
39265;BME280;42646;51.910;7.724;2022-07-30T01:49:20;101034.28;;;14.55;100.00
39265;BME280;42646;51.910;7.724;2022-07-30T01:51:49;101031.91;;;14.52;100.00
39265;BME280;42646;51.910;7.724;2022-07-30T01:54:18;101039.09;;;14.52;100.00
39265;BME280;42646;51.910;7.724;2022-07-30T01:56:48;101042.09;;;14.49;100.00
39265;BME280;42646;51.910;7.724;2022-07-30T01:59:19;101037.75;;;14.48;100.00
39265;BME280;42646;51.910;7.724;2022-07-30T02:01:49;101034.66;;;14.42;100.00
39265;BME280;42646;51.910;7.724;2022-07-30T02:04:17;101042.16;;;14.39;100.00
39265;BME280;42646;51.910;7.724;2022-07-30T02:06:47;101035.28;;;14.36;100.00
39265;BME280;42646;51.910;7.724;2022-07-30T02:09:21;101032.06;;;14.33;100.00
39265;BME280;42646;51.910;7.724;2022-07-30T02:11:53;101035.06;;;14.30;100.00
39265;BME280;42646;51.910;7.724;2022-07-30T02:14:45;101043.38;;;14.27;100.00
39265;BME280;42646;51.910;7.724;2022-07-30T02:17:18;101045.38;;;14.25;100.00
39265;BME280;42646;51.910;7.724;2022-07-30T02:19:56;101047.34;;;14.23;100.00
39265;BME280;42646;51.910;7.724;2022-07-30T02:22:26;101049.66;;;14.18;100.00
39265;BME280;42646;51.910;7.724;2022-07-30T02:24:59;101050.09;;;14.13;100.00
39265;BME280;42646;51.910;7.724;2022-07-30T02:27:32;101049.03;;;14.06;100.00
39265;BME280;42646;51.910;7.724;2022-07-30T02:30:05;101037.94;;;14.01;100.00
39265;BME280;42646;51.910;7.724;2022-07-30T02:32:36;101048.09;;;13.97;100.00
39265;BME280;42646;51.910;7.724;2022-07-30T02:35:08;101047.56;;;13.94;100.00
39265;BME280;42646;51.910;7.724;2022-07-30T02:37:39;101045.19;;;13.90;100.00
39265;BME280;42646;51.910;7.724;2022-07-30T02:40:13;101053.22;;;13.90;100.00
39265;BME280;42646;51.910;7.724;2022-07-30T02:42:45;101049.97;;;13.87;100.00
39265;BME280;42646;51.910;7.724;2022-07-30T02:45:16;101058.31;;;13.84;100.00
39265;BME280;42646;51.910;7.724;2022-07-30T02:47:45;101046.06;;;13.81;100.00
39265;BME280;42646;51.910;7.724;2022-07-30T02:50:16;101045.53;;;13.78;100.00
39265;BME280;42646;51.910;7.724;2022-07-30T02:52:46;101052.00;;;13.75;100.00
39265;BME280;42646;51.910;7.724;2022-07-30T02:55:17;101054.16;;;13.72;100.00
39265;BME280;42646;51.910;7.724;2022-07-30T02:57:46;101043.63;;;13.70;100.00
39265;BME280;42646;51.910;7.724;2022-07-30T03:00:16;101049.94;;;13.69;100.00
39265;BME280;42646;51.910;7.724;2022-07-30T03:02:44;101051.78;;;13.69;100.00
39265;BME280;42646;51.910;7.724;2022-07-30T03:05:13;101051.94;;;13.67;100.00
39265;BME280;42646;51.910;7.724;2022-07-30T03:07:42;101052.09;;;13.66;100.00
39265;BME280;42646;51.910;7.724;2022-07-30T03:10:11;101052.25;;;13.64;100.00
39265;BME280;42646;51.910;7.724;2022-07-30T03:12:40;101059.69;;;13.60;100.00
39265;BME280;42646;51.910;7.724;2022-07-30T03:15:13;101061.13;;;13.55;100.00
39265;BME280;42646;51.910;7.724;2022-07-30T03:17:45;101069.59;;;13.50;100.00
39265;BME280;42646;51.910;7.724;2022-07-30T03:20:19;101061.03;;;13.47;100.00
39265;BME280;42646;51.910;7.724;2022-07-30T03:22:50;101065.53;;;13.46;100.00
39265;BME280;42646;51.910;7.724;2022-07-30T03:25:23;101073.56;;;13.46;100.00
39265;BME280;42646;51.910;7.724;2022-07-30T03:27:54;101068.34;;;13.45;100.00
39265;BME280;42646;51.910;7.724;2022-07-30T03:30:25;101062.31;;;13.43;100.00
39265;BME280;42646;51.910;7.724;2022-07-30T03:32:54;101056.28;;;13.41;100.00
39265;BME280;42646;51.910;7.724;2022-07-30T03:35:23;101068.81;;;13.40;100.00
39265;BME280;42646;51.910;7.724;2022-07-30T03:37:53;101056.41;;;13.39;100.00
39265;BME280;42646;51.910;7.724;2022-07-30T03:40:23;101060.06;;;13.38;100.00
39265;BME280;42646;51.910;7.724;2022-07-30T03:42:51;101063.59;;;13.39;100.00
39265;BME280;42646;51.910;7.724;2022-07-30T03:45:22;101059.38;;;13.36;100.00
39265;BME280;42646;51.910;7.724;2022-07-30T03:47:56;101066.56;;;13.35;100.00
39265;BME280;42646;51.910;7.724;2022-07-30T03:50:25;101063.19;;;13.33;100.00
39265;BME280;42646;51.910;7.724;2022-07-30T03:52:54;101059.97;;;13.30;100.00
39265;BME280;42646;51.910;7.724;2022-07-30T03:55:22;101063.50;;;13.30;100.00
39265;BME280;42646;51.910;7.724;2022-07-30T03:58:08;101055.75;;;13.27;100.00
39265;BME280;42646;51.910;7.724;2022-07-30T04:00:38;101060.25;;;13.27;100.00
39265;BME280;42646;51.910;7.724;2022-07-30T04:03:07;101067.44;;;13.26;100.00
39265;BME280;42646;51.910;7.724;2022-07-30T04:05:48;101065.91;;;13.24;100.00
39265;BME280;42646;51.910;7.724;2022-07-30T04:08:15;101076.88;;;13.21;100.00
39265;BME280;42646;51.910;7.724;2022-07-30T04:10:43;101078.81;;;13.19;100.00
39265;BME280;42646;51.910;7.724;2022-07-30T04:13:20;101072.91;;;13.15;100.00
39265;BME280;42646;51.910;7.724;2022-07-30T04:15:53;101071.38;;;13.13;100.00
39265;BME280;42646;51.910;7.724;2022-07-30T04:18:47;101078.56;;;13.12;100.00
39265;BME280;42646;51.910;7.724;2022-07-30T04:21:17;101087.56;;;13.11;100.00
39265;BME280;42646;51.910;7.724;2022-07-30T04:23:48;101087.69;;;13.09;100.00
39265;BME280;42646;51.910;7.724;2022-07-30T04:26:32;101091.34;;;13.08;100.00
39265;BME280;42646;51.910;7.724;2022-07-30T04:29:03;101101.88;;;13.10;100.00
39265;BME280;42646;51.910;7.724;2022-07-30T04:31:32;101095.56;;;13.11;100.00
39265;BME280;42646;51.910;7.724;2022-07-30T04:34:26;101094.75;;;13.10;100.00
39265;BME280;42646;51.910;7.724;2022-07-30T04:36:54;101097.41;;;13.10;100.00
39265;BME280;42646;51.910;7.724;2022-07-30T04:39:23;101101.19;;;13.08;100.00
39265;BME280;42646;51.910;7.724;2022-07-30T04:41:51;101102.34;;;13.05;100.00
39265;BME280;42646;51.910;7.724;2022-07-30T04:44:30;101105.84;;;13.06;100.00
39265;BME280;42646;51.910;7.724;2022-07-30T04:47:22;101106.69;;;13.06;100.00
39265;BME280;42646;51.910;7.724;2022-07-30T04:50:15;101103.88;;;13.08;100.00
39265;BME280;42646;51.910;7.724;2022-07-30T04:52:45;101115.13;;;13.12;100.00
39265;BME280;42646;51.910;7.724;2022-07-30T04:55:20;101117.78;;;13.12;100.00
39265;BME280;42646;51.910;7.724;2022-07-30T04:57:51;101116.94;;;13.11;100.00
39265;BME280;42646;51.910;7.724;2022-07-30T05:00:20;101119.47;;;13.13;100.00
39265;BME280;42646;51.910;7.724;2022-07-30T05:02:50;101129.00;;;13.15;100.00
39265;BME280;42646;51.910;7.724;2022-07-30T05:05:21;101131.56;;;13.17;100.00
39265;BME280;42646;51.910;7.724;2022-07-30T05:07:51;101128.47;;;13.21;100.00
39265;BME280;42646;51.910;7.724;2022-07-30T05:10:19;101132.69;;;13.24;100.00
39265;BME280;42646;51.910;7.724;2022-07-30T05:12:47;101137.75;;;13.27;100.00
39265;BME280;42646;51.910;7.724;2022-07-30T05:15:18;101140.97;;;13.30;100.00
39265;BME280;42646;51.910;7.724;2022-07-30T05:17:46;101150.25;;;13.36;100.00
39265;BME280;42646;51.910;7.724;2022-07-30T05:20:15;101148.13;;;13.40;100.00
39265;BME280;42646;51.910;7.724;2022-07-30T05:23:03;101161.78;;;13.46;100.00
39265;BME280;42646;51.910;7.724;2022-07-30T05:25:31;101159.47;;;13.51;100.00
39265;BME280;42646;51.910;7.724;2022-07-30T05:28:27;101158.91;;;13.57;100.00
39265;BME280;42646;51.910;7.724;2022-07-30T05:30:59;101159.31;;;13.62;100.00
39265;BME280;42646;51.910;7.724;2022-07-30T05:33:35;101157.03;;;13.68;100.00
39265;BME280;42646;51.910;7.724;2022-07-30T05:36:09;101151.25;;;13.72;100.00
39265;BME280;42646;51.910;7.724;2022-07-30T05:38:40;101152.50;;;13.78;100.00
39265;BME280;42646;51.910;7.724;2022-07-30T05:41:16;101156.97;;;13.87;100.00
39265;BME280;42646;51.910;7.724;2022-07-30T05:44:02;101165.25;;;13.94;100.00
39265;BME280;42646;51.910;7.724;2022-07-30T05:46:30;101163.78;;;13.99;100.00
39265;BME280;42646;51.910;7.724;2022-07-30T05:48:58;101165.91;;;14.05;100.00
39265;BME280;42646;51.910;7.724;2022-07-30T05:51:26;101163.16;;;14.15;100.00
39265;BME280;42646;51.910;7.724;2022-07-30T05:53:56;101157.06;;;14.23;100.00
39265;BME280;42646;51.910;7.724;2022-07-30T05:56:42;101156.34;;;14.30;100.00
39265;BME280;42646;51.910;7.724;2022-07-30T05:59:13;101159.09;;;14.38;100.00
39265;BME280;42646;51.910;7.724;2022-07-30T06:01:59;101160.91;;;14.48;100.00
39265;BME280;42646;51.910;7.724;2022-07-30T06:04:45;101158.13;;;14.57;100.00
39265;BME280;42646;51.910;7.724;2022-07-30T06:07:12;101164.44;;;14.66;100.00
39265;BME280;42646;51.910;7.724;2022-07-30T06:09:42;101160.00;;;14.75;100.00
39265;BME280;42646;51.910;7.724;2022-07-30T06:12:10;101155.41;;;14.85;100.00
39265;BME280;42646;51.910;7.724;2022-07-30T06:14:39;101165.19;;;14.94;100.00
39265;BME280;42646;51.910;7.724;2022-07-30T06:17:10;101164.66;;;15.08;100.00
39265;BME280;42646;51.910;7.724;2022-07-30T06:20:05;101170.75;;;15.18;100.00
39265;BME280;42646;51.910;7.724;2022-07-30T06:22:46;101174.34;;;15.27;100.00
39265;BME280;42646;51.910;7.724;2022-07-30T06:25:23;101172.25;;;15.39;100.00
39265;BME280;42646;51.910;7.724;2022-07-30T06:27:50;101175.50;;;15.50;100.00
39265;BME280;42646;51.910;7.724;2022-07-30T06:30:18;101176.97;;;15.63;100.00
39265;BME280;42646;51.910;7.724;2022-07-30T06:32:56;101166.50;;;15.78;100.00
39265;BME280;42646;51.910;7.724;2022-07-30T06:35:24;101173.41;;;15.88;100.00
39265;BME280;42646;51.910;7.724;2022-07-30T06:37:51;101174.13;;;15.98;100.00
39265;BME280;42646;51.910;7.724;2022-07-30T06:40:39;101181.41;;;16.14;100.00
39265;BME280;42646;51.910;7.724;2022-07-30T06:43:30;101172.44;;;16.32;100.00
39265;BME280;42646;51.910;7.724;2022-07-30T06:46:17;101182.22;;;16.49;100.00
39265;BME280;42646;51.910;7.724;2022-07-30T06:48:47;101171.81;;;16.62;100.00
39265;BME280;42646;51.910;7.724;2022-07-30T06:51:15;101177.59;;;16.75;100.00
39265;BME280;42646;51.910;7.724;2022-07-30T06:53:43;101181.97;;;16.85;100.00
39265;BME280;42646;51.910;7.724;2022-07-30T06:56:13;101180.28;;;17.00;100.00
39265;BME280;42646;51.910;7.724;2022-07-30T06:58:46;101185.16;;;17.13;100.00
39265;BME280;42646;51.910;7.724;2022-07-30T07:01:34;101181.63;;;17.28;100.00
39265;BME280;42646;51.910;7.724;2022-07-30T07:04:02;101190.34;;;17.47;100.00
39265;BME280;42646;51.910;7.724;2022-07-30T07:06:31;101189.31;;;17.64;100.00
39265;BME280;42646;51.910;7.724;2022-07-30T07:08:59;101181.25;;;17.80;100.00
39265;BME280;42646;51.910;7.724;2022-07-30T07:11:36;101180.66;;;18.01;100.00
39265;BME280;42646;51.910;7.724;2022-07-30T07:14:08;101176.69;;;18.20;100.00
39265;BME280;42646;51.910;7.724;2022-07-30T07:16:35;101185.03;;;18.41;100.00
39265;BME280;42646;51.910;7.724;2022-07-30T07:19:26;101178.53;;;18.59;98.84
39265;BME280;42646;51.910;7.724;2022-07-30T07:22:14;101180.97;;;18.77;95.86
39265;BME280;42646;51.910;7.724;2022-07-30T07:24:43;101177.03;;;18.87;96.54
39265;BME280;42646;51.910;7.724;2022-07-30T07:27:17;101177.75;;;19.04;94.46
39265;BME280;42646;51.910;7.724;2022-07-30T07:29:47;101176.03;;;19.26;92.23
39265;BME280;42646;51.910;7.724;2022-07-30T07:32:35;101182.09;;;19.43;91.86
39265;BME280;42646;51.910;7.724;2022-07-30T07:35:04;101179.81;;;19.55;91.03
39265;BME280;42646;51.910;7.724;2022-07-30T07:37:34;101181.06;;;19.67;91.28
39265;BME280;42646;51.910;7.724;2022-07-30T07:40:05;101184.63;;;19.82;89.51
39265;BME280;42646;51.910;7.724;2022-07-30T07:42:39;101182.84;;;19.89;86.88
39265;BME280;42646;51.910;7.724;2022-07-30T07:45:08;101185.63;;;19.96;85.97
39265;BME280;42646;51.910;7.724;2022-07-30T07:47:57;101186.75;;;20.01;84.54
39265;BME280;42646;51.910;7.724;2022-07-30T07:50:45;101177.34;;;20.12;87.04
39265;BME280;42646;51.910;7.724;2022-07-30T07:53:25;101176.75;;;20.32;87.49
39265;BME280;42646;51.910;7.724;2022-07-30T07:55:54;101172.63;;;20.50;85.19
39265;BME280;42646;51.910;7.724;2022-07-30T07:58:25;101175.66;;;20.62;83.49
39265;BME280;42646;51.910;7.724;2022-07-30T08:00:59;101186.38;;;20.70;82.65
39265;BME280;42646;51.910;7.724;2022-07-30T08:03:45;101187.34;;;20.84;83.74
39265;BME280;42646;51.910;7.724;2022-07-30T08:06:38;101187.72;;;21.02;83.59
39265;BME280;42646;51.910;7.724;2022-07-30T08:09:28;101189.75;;;21.22;82.15
39265;BME280;42646;51.910;7.724;2022-07-30T08:12:23;101185.78;;;21.39;80.07
39265;BME280;42646;51.910;7.724;2022-07-30T08:15:11;101186.47;;;21.48;79.47
39265;BME280;42646;51.910;7.724;2022-07-30T08:17:57;101183.00;;;21.54;79.14
39265;BME280;42646;51.910;7.724;2022-07-30T08:20:37;101183.03;;;21.60;79.47
39265;BME280;42646;51.910;7.724;2022-07-30T08:23:06;101181.41;;;21.66;78.66
39265;BME280;42646;51.910;7.724;2022-07-30T08:25:34;101186.03;;;21.72;78.25
39265;BME280;42646;51.910;7.724;2022-07-30T08:28:02;101183.56;;;21.77;78.17
39265;BME280;42646;51.910;7.724;2022-07-30T08:30:31;101188.19;;;21.83;76.97
39265;BME280;42646;51.910;7.724;2022-07-30T08:33:04;101180.09;;;21.90;77.83
39265;BME280;42646;51.910;7.724;2022-07-30T08:35:32;101175.16;;;22.00;79.32
39265;BME280;42646;51.910;7.724;2022-07-30T08:38:00;101184.81;;;22.09;78.32
39265;BME280;42646;51.910;7.724;2022-07-30T08:40:32;101179.41;;;22.16;78.54
39265;BME280;42646;51.910;7.724;2022-07-30T08:43:05;101179.03;;;22.26;78.63
39265;BME280;42646;51.910;7.724;2022-07-30T08:45:37;101174.72;;;22.38;76.95
39265;BME280;42646;51.910;7.724;2022-07-30T08:48:21;101185.13;;;22.41;76.66
39265;BME280;42646;51.910;7.724;2022-07-30T08:50:50;101179.31;;;22.44;77.30
39265;BME280;42646;51.910;7.724;2022-07-30T08:53:33;101178.09;;;22.53;77.49
39265;BME280;42646;51.910;7.724;2022-07-30T08:56:03;101184.16;;;22.62;76.56
39265;BME280;42646;51.910;7.724;2022-07-30T08:58:32;101191.88;;;22.65;75.92
39265;BME280;42646;51.910;7.724;2022-07-30T09:01:05;101181.47;;;22.69;75.61
39265;BME280;42646;51.910;7.724;2022-07-30T09:03:36;101186.28;;;22.73;75.40
39265;BME280;42646;51.910;7.724;2022-07-30T09:06:10;101190.28;;;22.77;75.45
39265;BME280;42646;51.910;7.724;2022-07-30T09:08:40;101196.09;;;22.81;75.26
39265;BME280;42646;51.910;7.724;2022-07-30T09:11:09;101196.97;;;22.88;73.90
39265;BME280;42646;51.910;7.724;2022-07-30T09:13:39;101203.63;;;22.85;73.83
39265;BME280;42646;51.910;7.724;2022-07-30T09:16:18;101199.28;;;22.91;73.81
39265;BME280;42646;51.910;7.724;2022-07-30T09:18:48;101200.34;;;22.97;73.52
39265;BME280;42646;51.910;7.724;2022-07-30T09:21:18;101199.50;;;22.96;73.70
39265;BME280;42646;51.910;7.724;2022-07-30T09:23:57;101197.03;;;23.01;73.72
39265;BME280;42646;51.910;7.724;2022-07-30T09:26:55;101199.91;;;23.06;71.94
39265;BME280;42646;51.910;7.724;2022-07-30T09:29:42;101197.84;;;23.02;73.46
39265;BME280;42646;51.910;7.724;2022-07-30T09:32:47;101203.69;;;23.05;73.75
39265;BME280;42646;51.910;7.724;2022-07-30T09:35:34;101200.78;;;23.13;74.20
39265;BME280;42646;51.910;7.724;2022-07-30T09:38:08;101215.81;;;23.23;73.66
39265;BME280;42646;51.910;7.724;2022-07-30T09:40:52;101214.16;;;23.28;72.69
39265;BME280;42646;51.910;7.724;2022-07-30T09:43:41;101209.16;;;23.32;70.63
39265;BME280;42646;51.910;7.724;2022-07-30T09:46:17;101208.50;;;23.30;70.69
39265;BME280;42646;51.910;7.724;2022-07-30T09:48:46;101203.06;;;23.30;71.31
39265;BME280;42646;51.910;7.724;2022-07-30T09:51:15;101210.19;;;23.37;72.64
39265;BME280;42646;51.910;7.724;2022-07-30T09:53:53;101209.75;;;23.40;72.44
39265;BME280;42646;51.910;7.724;2022-07-30T09:56:25;101210.81;;;23.46;72.55
39265;BME280;42646;51.910;7.724;2022-07-30T09:58:56;101204.53;;;23.52;71.72
39265;BME280;42646;51.910;7.724;2022-07-30T10:01:24;101210.78;;;23.59;71.88
39265;BME280;42646;51.910;7.724;2022-07-30T10:04:32;101217.28;;;23.65;71.01
39265;BME280;42646;51.910;7.724;2022-07-30T10:07:16;101206.25;;;23.66;70.83
39265;BME280;42646;51.910;7.724;2022-07-30T10:09:51;101201.63;;;23.74;70.81
39265;BME280;42646;51.910;7.724;2022-07-30T10:12:20;101216.88;;;23.75;72.02
39265;BME280;42646;51.910;7.724;2022-07-30T10:14:52;101209.53;;;23.82;70.42
39265;BME280;42646;51.910;7.724;2022-07-30T10:17:21;101206.19;;;23.86;68.48
39265;BME280;42646;51.910;7.724;2022-07-30T10:20:13;101210.16;;;23.90;69.79
39265;BME280;42646;51.910;7.724;2022-07-30T10:22:59;101203.63;;;24.05;71.32
39265;BME280;42646;51.910;7.724;2022-07-30T10:25:34;101209.03;;;24.18;69.37
39265;BME280;42646;51.910;7.724;2022-07-30T10:28:34;101208.16;;;24.24;69.34
39265;BME280;42646;51.910;7.724;2022-07-30T10:31:05;101206.06;;;24.33;68.50
39265;BME280;42646;51.910;7.724;2022-07-30T10:33:53;101206.63;;;24.48;68.87
39265;BME280;42646;51.910;7.724;2022-07-30T10:36:23;101216.88;;;24.52;67.23
39265;BME280;42646;51.910;7.724;2022-07-30T10:38:53;101207.22;;;24.57;64.89
39265;BME280;42646;51.910;7.724;2022-07-30T10:41:32;101211.38;;;24.59;65.40
39265;BME280;42646;51.910;7.724;2022-07-30T10:44:23;101210.97;;;24.62;63.33
39265;BME280;42646;51.910;7.724;2022-07-30T10:47:00;101209.91;;;24.63;64.10
39265;BME280;42646;51.910;7.724;2022-07-30T10:49:33;101212.00;;;24.68;63.36
39265;BME280;42646;51.910;7.724;2022-07-30T10:52:10;101203.00;;;24.67;61.79
39265;BME280;42646;51.910;7.724;2022-07-30T10:54:40;101199.81;;;24.70;62.94
39265;BME280;42646;51.910;7.724;2022-07-30T10:57:10;101201.66;;;24.76;63.33
39265;BME280;42646;51.910;7.724;2022-07-30T11:00:11;101210.78;;;24.89;61.64
39265;BME280;42646;51.910;7.724;2022-07-30T11:03:17;101204.47;;;24.95;60.16
39265;BME280;42646;51.910;7.724;2022-07-30T11:05:48;101189.81;;;24.96;58.54
39265;BME280;42646;51.910;7.724;2022-07-30T11:08:35;101205.59;;;24.87;58.53
39265;BME280;42646;51.910;7.724;2022-07-30T11:11:42;101189.66;;;24.84;59.61
39265;BME280;42646;51.910;7.724;2022-07-30T11:15:00;101193.63;;;24.88;59.80
39265;BME280;42646;51.910;7.724;2022-07-30T11:18:01;101194.22;;;24.97;59.42
39265;BME280;42646;51.910;7.724;2022-07-30T11:20:30;101186.44;;;25.00;60.14
39265;BME280;42646;51.910;7.724;2022-07-30T11:23:36;101190.97;;;25.13;57.63
39265;BME280;42646;51.910;7.724;2022-07-30T11:26:05;101199.78;;;25.15;57.12
39265;BME280;42646;51.910;7.724;2022-07-30T11:28:35;101193.69;;;25.13;56.55
39265;BME280;42646;51.910;7.724;2022-07-30T11:31:24;101199.31;;;25.18;55.75
39265;BME280;42646;51.910;7.724;2022-07-30T11:34:26;101196.03;;;25.10;55.85
39265;BME280;42646;51.910;7.724;2022-07-30T11:37:10;101189.94;;;25.14;55.34
39265;BME280;42646;51.910;7.724;2022-07-30T11:40:10;101197.59;;;25.24;55.63
39265;BME280;42646;51.910;7.724;2022-07-30T11:42:40;101188.94;;;25.34;54.94
39265;BME280;42646;51.910;7.724;2022-07-30T11:45:23;101189.09;;;25.39;54.92
39265;BME280;42646;51.910;7.724;2022-07-30T11:47:56;101193.66;;;25.45;54.40
39265;BME280;42646;51.910;7.724;2022-07-30T11:50:28;101193.84;;;25.43;54.15
39265;BME280;42646;51.910;7.724;2022-07-30T11:52:58;101192.84;;;25.38;53.01
39265;BME280;42646;51.910;7.724;2022-07-30T11:55:29;101187.69;;;25.29;51.81
39265;BME280;42646;51.910;7.724;2022-07-30T11:57:59;101181.19;;;25.30;52.85
39265;BME280;42646;51.910;7.724;2022-07-30T12:00:33;101177.75;;;25.42;53.37
39265;BME280;42646;51.910;7.724;2022-07-30T12:03:06;101177.00;;;25.53;52.55
39265;BME280;42646;51.910;7.724;2022-07-30T12:05:34;101182.56;;;25.65;52.39
39265;BME280;42646;51.910;7.724;2022-07-30T12:08:03;101189.84;;;25.71;52.73
39265;BME280;42646;51.910;7.724;2022-07-30T12:10:32;101188.72;;;25.78;51.86
39265;BME280;42646;51.910;7.724;2022-07-30T12:13:12;101187.63;;;25.86;51.16
39265;BME280;42646;51.910;7.724;2022-07-30T12:15:42;101184.00;;;25.92;48.58
39265;BME280;42646;51.910;7.724;2022-07-30T12:18:10;101193.16;;;25.79;48.05
39265;BME280;42646;51.910;7.724;2022-07-30T12:20:55;101183.97;;;25.67;48.43
39265;BME280;42646;51.910;7.724;2022-07-30T12:23:25;101178.16;;;25.64;47.49
39265;BME280;42646;51.910;7.724;2022-07-30T12:25:55;101181.72;;;25.64;48.84
39265;BME280;42646;51.910;7.724;2022-07-30T12:28:24;101186.63;;;25.80;49.13
39265;BME280;42646;51.910;7.724;2022-07-30T12:30:53;101186.78;;;25.86;48.95
39265;BME280;42646;51.910;7.724;2022-07-30T12:33:22;101189.50;;;25.86;48.73
39265;BME280;42646;51.910;7.724;2022-07-30T12:35:51;101187.06;;;25.96;50.14
39265;BME280;42646;51.910;7.724;2022-07-30T12:38:21;101180.50;;;26.03;48.48
39265;BME280;42646;51.910;7.724;2022-07-30T12:40:55;101183.00;;;26.05;47.73
39265;BME280;42646;51.910;7.724;2022-07-30T12:43:44;101182.75;;;26.06;48.76
39265;BME280;42646;51.910;7.724;2022-07-30T12:46:14;101177.91;;;26.08;49.02
39265;BME280;42646;51.910;7.724;2022-07-30T12:48:54;101175.25;;;26.20;46.63
39265;BME280;42646;51.910;7.724;2022-07-30T12:51:25;101176.59;;;26.29;47.66
39265;BME280;42646;51.910;7.724;2022-07-30T12:53:55;101181.47;;;26.46;47.79
39265;BME280;42646;51.910;7.724;2022-07-30T12:56:26;101181.53;;;26.57;48.44
39265;BME280;42646;51.910;7.724;2022-07-30T12:58:55;101183.22;;;26.70;47.29
39265;BME280;42646;51.910;7.724;2022-07-30T13:01:41;101169.50;;;26.88;46.21
39265;BME280;42646;51.910;7.724;2022-07-30T13:04:09;101170.47;;;26.94;45.03
39265;BME280;42646;51.910;7.724;2022-07-30T13:06:38;101174.09;;;27.06;43.69
39265;BME280;42646;51.910;7.724;2022-07-30T13:09:16;101173.84;;;27.08;43.81
39265;BME280;42646;51.910;7.724;2022-07-30T13:11:47;101174.09;;;27.18;44.44
39265;BME280;42646;51.910;7.724;2022-07-30T13:14:16;101164.84;;;27.31;44.40
39265;BME280;42646;51.910;7.724;2022-07-30T13:16:49;101169.84;;;27.46;44.09
39265;BME280;42646;51.910;7.724;2022-07-30T13:19:17;101168.66;;;27.53;43.71
39265;BME280;42646;51.910;7.724;2022-07-30T13:21:44;101165.56;;;27.61;44.25
39265;BME280;42646;51.910;7.724;2022-07-30T13:24:15;101174.97;;;27.77;44.78